Time;durP1;ratioP1;P1;durP2;ratioP2;P2;SDS_P1;SDS_P2;PMS_P1;PMS_P2;Temp;Humidity;BMP_temperature;BMP_pressure;BME280_temperature;BME280_humidity;BME280_pressure;Samples;Min_cycle;Max_cycle;Signal;HPM_P1;HPM_P2
2021/07/31 00:02:06;;;;;;;10.95;7.60;;;;;;;;;;5033991;28;20032;-71
2021/07/31 00:04:32;;;;;;;13.07;8.85;;;;;;;;;;5032805;28;20029;-70
2021/07/31 00:06:58;;;;;;;15.38;8.57;;;;;;;;;;5037585;28;20567;-71
2021/07/31 00:09:24;;;;;;;11.40;8.30;;;;;;;;;;5052606;28;20475;-70
2021/07/31 00:11:50;;;;;;;11.43;8.45;;;;;;;;;;5034385;28;20377;-71
2021/07/31 00:14:16;;;;;;;12.77;9.02;;;;;;;;;;5048542;28;20071;-72
2021/07/31 00:16:43;;;;;;;16.90;7.97;;;;;;;;;;5052582;28;20029;-71
2021/07/31 00:19:09;;;;;;;14.80;8.48;;;;;;;;;;5052667;28;20025;-71
2021/07/31 00:21:35;;;;;;;14.27;8.55;;;;;;;;;;5052141;28;20032;-71
2021/07/31 00:24:01;;;;;;;15.60;9.13;;;;;;;;;;5052194;28;20013;-71
2021/07/31 00:26:27;;;;;;;10.88;8.32;;;;;;;;;;5034133;28;20021;-71
2021/07/31 00:28:54;;;;;;;14.65;8.65;;;;;;;;;;5052118;28;20025;-74
2021/07/31 00:31:20;;;;;;;14.55;8.13;;;;;;;;;;5034284;28;20356;-70
2021/07/31 00:33:47;;;;;;;12.55;9.07;;;;;;;;;;5034100;28;20384;-73
2021/07/31 00:36:13;;;;;;;12.73;8.48;;;;;;;;;;5052160;28;20029;-70
2021/07/31 00:38:39;;;;;;;12.68;9.00;;;;;;;;;;5034060;28;20028;-71
2021/07/31 00:41:05;;;;;;;12.73;8.27;;;;;;;;;;5034210;28;20036;-72
2021/07/31 00:43:31;;;;;;;43.35;9.80;;;;;;;;;;5050058;28;20099;-71
2021/07/31 00:45:57;;;;;;;13.18;8.23;;;;;;;;;;5047698;28;20061;-72
2021/07/31 00:48:23;;;;;;;18.50;8.85;;;;;;;;;;5032289;28;20389;-71
2021/07/31 00:50:49;;;;;;;12.80;8.57;;;;;;;;;;5048249;28;20048;-70
2021/07/31 00:53:15;;;;;;;15.07;9.00;;;;;;;;;;5051813;28;20107;-71
2021/07/31 00:55:41;;;;;;;14.43;8.60;;;;;;;;;;5051940;28;20111;-72
2021/07/31 00:58:08;;;;;;;13.10;8.88;;;;;;;;;;5034133;28;20116;-72
2021/07/31 01:00:35;;;;;;;16.60;9.10;;;;;;;;;;5052052;28;20490;-71
2021/07/31 01:03:01;;;;;;;15.68;8.02;;;;;;;;;;5052628;28;20107;-72
2021/07/31 01:05:27;;;;;;;17.85;8.85;;;;;;;;;;5052698;28;20056;-71
2021/07/31 01:07:53;;;;;;;14.60;8.77;;;;;;;;;;5052467;28;20074;-70
2021/07/31 01:10:20;;;;;;;15.00;8.98;;;;;;;;;;5052666;28;20070;-73
2021/07/31 01:12:47;;;;;;;13.27;8.30;;;;;;;;;;5059279;28;20045;-71
2021/07/31 01:15:13;;;;;;;14.55;8.55;;;;;;;;;;5072079;28;20028;-70
2021/07/31 01:17:39;;;;;;;17.08;8.65;;;;;;;;;;5072040;28;20017;-70
2021/07/31 01:20:05;;;;;;;14.38;8.90;;;;;;;;;;5072621;28;20040;-69
2021/07/31 01:22:31;;;;;;;12.27;7.68;;;;;;;;;;5054616;28;20017;-69
2021/07/31 01:24:57;;;;;;;12.30;8.43;;;;;;;;;;5072288;28;20048;-71
2021/07/31 01:27:23;;;;;;;13.93;8.05;;;;;;;;;;5040454;28;20025;-71
2021/07/31 01:29:49;;;;;;;15.75;9.25;;;;;;;;;;5031940;28;20080;-72
2021/07/31 01:32:16;;;;;;;14.85;8.23;;;;;;;;;;5031916;28;20029;-71
2021/07/31 01:34:42;;;;;;;16.50;8.60;;;;;;;;;;5032338;28;20076;-71
2021/07/31 01:37:08;;;;;;;13.02;8.55;;;;;;;;;;5032401;28;20079;-69
2021/07/31 01:39:34;;;;;;;13.95;7.85;;;;;;;;;;5032381;28;20072;-70
2021/07/31 01:42:00;;;;;;;15.20;9.23;;;;;;;;;;5032325;28;20021;-69
2021/07/31 01:44:26;;;;;;;13.10;8.05;;;;;;;;;;5047344;28;20031;-70
2021/07/31 01:46:52;;;;;;;11.82;7.70;;;;;;;;;;5072133;28;20035;-70
2021/07/31 01:49:18;;;;;;;15.57;8.63;;;;;;;;;;5071798;28;20024;-71
2021/07/31 01:51:44;;;;;;;12.68;8.27;;;;;;;;;;5071968;28;20055;-70
2021/07/31 01:54:10;;;;;;;13.77;8.30;;;;;;;;;;5072205;28;20025;-71
2021/07/31 01:56:36;;;;;;;14.13;8.43;;;;;;;;;;5072146;28;20039;-71
2021/07/31 01:59:03;;;;;;;13.90;8.10;;;;;;;;;;5054093;28;20031;-72
2021/07/31 02:01:29;;;;;;;17.30;9.57;;;;;;;;;;5072183;28;20025;-72
2021/07/31 02:03:55;;;;;;;12.73;8.50;;;;;;;;;;5072290;28;20491;-72
2021/07/31 02:06:21;;;;;;;14.25;8.95;;;;;;;;;;5071917;28;20033;-72
2021/07/31 02:08:47;;;;;;;13.13;8.55;;;;;;;;;;5071602;28;20031;-72
2021/07/31 02:11:13;;;;;;;14.75;8.40;;;;;;;;;;5071803;28;20131;-73
2021/07/31 02:13:40;;;;;;;12.50;7.85;;;;;;;;;;5054219;28;20033;-71
2021/07/31 02:16:06;;;;;;;12.57;8.63;;;;;;;;;;5071917;28;20036;-72
2021/07/31 02:18:32;;;;;;;16.45;8.73;;;;;;;;;;5047746;28;20049;-70
2021/07/31 02:20:58;;;;;;;11.82;7.68;;;;;;;;;;5058712;28;20033;-72
2021/07/31 02:23:24;;;;;;;13.95;8.45;;;;;;;;;;5071209;28;20446;-71
2021/07/31 02:25:50;;;;;;;20.10;9.27;;;;;;;;;;5053447;28;20375;-70
2021/07/31 02:28:16;;;;;;;18.58;8.35;;;;;;;;;;5053821;28;20024;-71
2021/07/31 02:30:42;;;;;;;11.73;8.60;;;;;;;;;;5071689;28;20095;-71
2021/07/31 02:33:08;;;;;;;12.98;8.48;;;;;;;;;;5053823;28;20024;-71
2021/07/31 02:35:34;;;;;;;13.75;8.63;;;;;;;;;;5071839;28;20115;-71
2021/07/31 02:38:05;;;;;;;15.55;9.43;;;;;;;;;;5066562;28;20036;-71
2021/07/31 02:40:31;;;;;;;15.85;8.02;;;;;;;;;;5056697;28;20505;-71
2021/07/31 02:42:57;;;;;;;14.90;8.75;;;;;;;;;;5071086;28;20033;-71
2021/07/31 02:45:23;;;;;;;12.77;8.55;;;;;;;;;;5071311;28;20070;-71
2021/07/31 02:47:50;;;;;;;17.65;8.70;;;;;;;;;;5071538;28;20051;-71
2021/07/31 02:50:16;;;;;;;16.15;8.40;;;;;;;;;;5053636;28;20408;-71
2021/07/31 02:52:42;;;;;;;12.90;9.40;;;;;;;;;;5071789;28;20025;-70
2021/07/31 02:55:08;;;;;;;11.77;7.85;;;;;;;;;;5071630;28;20043;-70
2021/07/31 02:57:34;;;;;;;16.80;8.85;;;;;;;;;;5071797;28;20016;-70
2021/07/31 03:00:00;;;;;;;13.13;8.38;;;;;;;;;;5071721;28;20025;-71
2021/07/31 03:02:26;;;;;;;14.27;8.07;;;;;;;;;;5071480;28;20112;-73
2021/07/31 03:04:52;;;;;;;13.63;8.10;;;;;;;;;;5071447;28;20100;-71
2021/07/31 03:07:19;;;;;;;14.23;7.55;;;;;;;;;;5071494;28;20029;-71
2021/07/31 03:09:45;;;;;;;11.48;7.32;;;;;;;;;;5071391;28;20070;-73
2021/07/31 03:12:11;;;;;;;13.70;6.78;;;;;;;;;;5049757;28;20053;-70
2021/07/31 03:14:37;;;;;;;14.75;7.80;;;;;;;;;;5051344;28;20025;-72
2021/07/31 03:17:04;;;;;;;11.13;7.30;;;;;;;;;;5051145;28;20033;-71
2021/07/31 03:19:30;;;;;;;15.40;7.10;;;;;;;;;;5034135;28;20022;-71
2021/07/31 03:21:56;;;;;;;11.23;6.80;;;;;;;;;;5066112;28;20018;-71
2021/07/31 03:24:22;;;;;;;14.05;7.03;;;;;;;;;;5053580;28;20032;-71
2021/07/31 03:26:48;;;;;;;12.63;7.30;;;;;;;;;;5053166;28;20017;-70
2021/07/31 03:29:14;;;;;;;11.75;6.47;;;;;;;;;;5053159;28;20021;-71
2021/07/31 03:31:40;;;;;;;13.02;6.47;;;;;;;;;;5054871;28;20017;-71
2021/07/31 03:34:06;;;;;;;15.15;6.57;;;;;;;;;;5054709;28;20025;-70
2021/07/31 03:36:32;;;;;;;11.00;6.63;;;;;;;;;;5054482;28;20480;-70
2021/07/31 03:38:58;;;;;;;14.77;6.97;;;;;;;;;;5054598;28;20084;-71
2021/07/31 03:41:24;;;;;;;25.83;6.45;;;;;;;;;;5054303;28;20029;-71
2021/07/31 03:43:50;;;;;;;23.00;6.78;;;;;;;;;;5054346;28;20021;-71
2021/07/31 03:46:16;;;;;;;17.30;7.28;;;;;;;;;;5054144;28;20025;-71
2021/07/31 03:48:42;;;;;;;31.02;6.95;;;;;;;;;;5054097;28;20057;-71
2021/07/31 03:51:08;;;;;;;16.40;6.00;;;;;;;;;;5054170;28;20021;-71
2021/07/31 03:53:34;;;;;;;9.27;6.18;;;;;;;;;;5054277;28;20061;-71
2021/07/31 03:56:02;;;;;;;12.50;6.35;;;;;;;;;;5054092;28;20606;-73
2021/07/31 03:58:28;;;;;;;8.63;4.68;;;;;;;;;;5054039;28;20048;-72
2021/07/31 04:00:54;;;;;;;9.20;5.60;;;;;;;;;;5053722;28;20032;-71
2021/07/31 04:03:20;;;;;;;12.13;6.20;;;;;;;;;;5052681;28;20028;-72
2021/07/31 04:05:46;;;;;;;12.20;6.18;;;;;;;;;;5053948;28;20104;-71
2021/07/31 04:08:12;;;;;;;13.63;5.00;;;;;;;;;;5053708;28;20021;-71
2021/07/31 04:10:38;;;;;;;7.80;5.03;;;;;;;;;;5053870;28;20477;-71
2021/07/31 04:13:04;;;;;;;10.18;5.72;;;;;;;;;;5069693;28;20052;-72
2021/07/31 04:15:30;;;;;;;10.65;5.63;;;;;;;;;;5073693;28;20032;-71
2021/07/31 04:17:56;;;;;;;12.60;4.90;;;;;;;;;;5073653;28;20055;-72
2021/07/31 04:20:22;;;;;;;10.35;4.95;;;;;;;;;;5073445;28;20025;-71
2021/07/31 04:22:48;;;;;;;10.75;4.80;;;;;;;;;;5073222;28;20017;-71
2021/07/31 04:25:15;;;;;;;13.40;4.72;;;;;;;;;;5054978;28;20028;-73
2021/07/31 04:27:41;;;;;;;7.43;4.90;;;;;;;;;;5073092;28;20062;-71
2021/07/31 04:30:07;;;;;;;8.30;5.25;;;;;;;;;;5072766;28;20107;-70
2021/07/31 04:32:33;;;;;;;7.95;5.07;;;;;;;;;;5054639;28;20043;-70
2021/07/31 04:34:59;;;;;;;10.27;5.00;;;;;;;;;;5072782;28;20380;-70
2021/07/31 04:37:25;;;;;;;9.05;4.15;;;;;;;;;;5054813;28;20538;-69
2021/07/31 04:39:51;;;;;;;7.75;4.68;;;;;;;;;;5072922;28;20498;-70
2021/07/31 04:42:17;;;;;;;7.80;4.53;;;;;;;;;;5072707;28;20375;-71
2021/07/31 04:44:43;;;;;;;8.18;4.57;;;;;;;;;;5054589;28;20487;-72
2021/07/31 04:47:09;;;;;;;10.00;5.07;;;;;;;;;;5072211;28;20450;-72
2021/07/31 04:49:36;;;;;;;7.30;4.10;;;;;;;;;;5072298;28;20033;-72
2021/07/31 04:52:03;;;;;;;13.15;4.63;;;;;;;;;;5072943;28;20028;-71
2021/07/31 04:54:30;;;;;;;8.73;4.55;;;;;;;;;;5055031;28;20028;-72
2021/07/31 04:56:56;;;;;;;6.97;4.03;;;;;;;;;;5072831;28;20115;-70
2021/07/31 04:59:22;;;;;;;7.80;4.05;;;;;;;;;;5072988;28;20078;-70
2021/07/31 05:01:48;;;;;;;8.70;4.05;;;;;;;;;;5054833;28;20078;-70
2021/07/31 05:04:14;;;;;;;8.48;3.83;;;;;;;;;;5072779;28;20027;-71
2021/07/31 05:06:40;;;;;;;9.55;4.30;;;;;;;;;;5072556;28;20096;-70
2021/07/31 05:09:06;;;;;;;7.47;4.30;;;;;;;;;;5072709;28;20023;-70
2021/07/31 05:11:32;;;;;;;8.32;3.28;;;;;;;;;;5054286;28;20041;-70
2021/07/31 05:13:59;;;;;;;6.40;3.58;;;;;;;;;;5072484;28;20032;-71
2021/07/31 05:16:28;;;;;;;6.43;3.50;;;;;;;;;;5072498;28;20025;-70
2021/07/31 05:18:54;;;;;;;10.18;4.07;;;;;;;;;;5050866;28;20435;-70
2021/07/31 05:21:39;;;;;;;7.13;3.95;;;;;;;;;;5056913;28;20032;-72
2021/07/31 05:24:05;;;;;;;6.50;3.65;;;;;;;;;;5072406;28;20055;-74
2021/07/31 05:26:31;;;;;;;5.00;3.55;;;;;;;;;;5072374;28;20021;-73
2021/07/31 05:28:57;;;;;;;6.55;3.58;;;;;;;;;;5072261;28;20043;-74
2021/07/31 05:31:23;;;;;;;8.70;3.75;;;;;;;;;;5054077;28;20115;-73
2021/07/31 05:33:49;;;;;;;5.15;3.35;;;;;;;;;;5054035;28;20017;-72
2021/07/31 05:36:16;;;;;;;6.55;3.72;;;;;;;;;;5054194;28;20047;-72
2021/07/31 05:38:42;;;;;;;6.57;3.53;;;;;;;;;;5072144;28;20050;-72
2021/07/31 05:41:13;;;;;;;8.20;3.83;;;;;;;;;;5054186;28;20111;-71
2021/07/31 05:43:39;;;;;;;5.82;3.45;;;;;;;;;;5071646;28;20027;-72
2021/07/31 05:46:05;;;;;;;6.00;3.38;;;;;;;;;;5072265;28;20031;-71
2021/07/31 05:48:31;;;;;;;5.88;3.85;;;;;;;;;;5072172;28;20032;-71
2021/07/31 05:50:57;;;;;;;6.32;3.33;;;;;;;;;;5072090;28;20021;-71
2021/07/31 05:53:23;;;;;;;7.57;3.28;;;;;;;;;;5054048;28;20045;-71
2021/07/31 05:55:52;;;;;;;6.50;3.47;;;;;;;;;;5071887;28;20115;-71
2021/07/31 05:58:18;;;;;;;5.78;3.33;;;;;;;;;;5071829;28;20020;-70
2021/07/31 06:00:44;;;;;;;8.38;3.10;;;;;;;;;;5071990;28;20092;-70
2021/07/31 06:03:10;;;;;;;6.25;3.20;;;;;;;;;;5066974;28;20036;-71
2021/07/31 06:05:36;;;;;;;9.07;3.40;;;;;;;;;;5052222;28;20025;-70
2021/07/31 06:08:02;;;;;;;8.05;3.58;;;;;;;;;;5034208;28;20107;-71
2021/07/31 06:10:28;;;;;;;6.53;3.42;;;;;;;;;;5034086;28;20025;-71
2021/07/31 06:12:54;;;;;;;6.82;3.70;;;;;;;;;;5051959;28;20049;-71
2021/07/31 06:15:20;;;;;;;5.72;3.30;;;;;;;;;;5034100;28;20052;-72
2021/07/31 06:17:46;;;;;;;5.97;3.35;;;;;;;;;;5034356;28;20044;-71
2021/07/31 06:20:13;;;;;;;5.57;3.60;;;;;;;;;;5034223;28;20091;-71
2021/07/31 06:22:39;;;;;;;5.85;3.45;;;;;;;;;;5034219;28;20182;-71
2021/07/31 06:25:06;;;;;;;6.18;3.60;;;;;;;;;;5051840;28;20017;-71
2021/07/31 06:27:32;;;;;;;7.38;3.45;;;;;;;;;;5051839;28;20025;-72
2021/07/31 06:29:58;;;;;;;8.23;3.83;;;;;;;;;;5034139;28;20017;-72
2021/07/31 06:32:24;;;;;;;6.68;3.65;;;;;;;;;;5045284;28;20476;-71
2021/07/31 06:34:50;;;;;;;17.70;4.15;;;;;;;;;;5035772;28;20037;-71
2021/07/31 06:37:16;;;;;;;10.07;4.15;;;;;;;;;;5051813;28;20081;-71
2021/07/31 06:39:42;;;;;;;7.70;3.67;;;;;;;;;;5049399;28;20056;-71
2021/07/31 06:42:08;;;;;;;10.93;3.63;;;;;;;;;;5050166;28;20021;-72
2021/07/31 06:44:34;;;;;;;13.77;3.88;;;;;;;;;;5050962;28;20040;-71
2021/07/31 06:47:00;;;;;;;8.18;4.18;;;;;;;;;;5051820;28;20100;-71
2021/07/31 06:49:26;;;;;;;7.60;4.00;;;;;;;;;;5051660;28;20355;-71
2021/07/31 06:51:53;;;;;;;9.18;3.67;;;;;;;;;;5050415;28;20021;-71
2021/07/31 06:54:19;;;;;;;8.32;4.43;;;;;;;;;;5052637;28;20013;-71
2021/07/31 06:56:45;;;;;;;8.32;3.50;;;;;;;;;;5054141;28;20060;-71
2021/07/31 06:59:11;;;;;;;7.03;3.88;;;;;;;;;;5054214;28;20025;-71
2021/07/31 07:01:37;;;;;;;5.72;3.45;;;;;;;;;;5055496;28;20057;-72
2021/07/31 07:04:03;;;;;;;7.88;3.28;;;;;;;;;;5055431;28;20029;-72
2021/07/31 07:06:29;;;;;;;9.30;3.55;;;;;;;;;;5063151;28;20086;-71
2021/07/31 07:08:55;;;;;;;9.88;3.42;;;;;;;;;;5075419;28;20021;-71
2021/07/31 07:11:21;;;;;;;6.38;3.33;;;;;;;;;;5075065;28;20102;-71
2021/07/31 07:13:47;;;;;;;7.25;3.00;;;;;;;;;;5057122;28;20032;-72
2021/07/31 07:16:13;;;;;;;7.07;3.28;;;;;;;;;;5074730;28;20648;-71
2021/07/31 07:18:39;;;;;;;7.10;3.30;;;;;;;;;;5074769;28;20106;-72
2021/07/31 07:21:09;;;;;;;8.80;3.25;;;;;;;;;;5074669;28;20025;-72
2021/07/31 07:23:36;;;;;;;7.20;3.67;;;;;;;;;;5047784;28;20056;-70
2021/07/31 07:26:02;;;;;;;5.38;3.17;;;;;;;;;;5074074;28;20020;-71
2021/07/31 07:28:28;;;;;;;4.88;3.30;;;;;;;;;;5074688;28;20324;-71
2021/07/31 07:30:55;;;;;;;6.15;3.00;;;;;;;;;;5074696;28;20025;-71
2021/07/31 07:33:21;;;;;;;5.88;2.97;;;;;;;;;;5074776;28;20538;-71
2021/07/31 07:35:47;;;;;;;4.80;2.90;;;;;;;;;;5074563;28;20064;-70
2021/07/31 07:38:13;;;;;;;4.85;3.10;;;;;;;;;;5074717;28;20024;-71
2021/07/31 07:40:39;;;;;;;6.32;3.30;;;;;;;;;;5057053;28;20378;-71
2021/07/31 07:43:05;;;;;;;6.35;3.25;;;;;;;;;;5064932;28;20066;-71
2021/07/31 07:45:31;;;;;;;7.05;3.45;;;;;;;;;;5074664;28;20025;-71
2021/07/31 07:47:58;;;;;;;6.22;3.22;;;;;;;;;;5074377;28;20062;-72
2021/07/31 07:50:24;;;;;;;5.05;2.70;;;;;;;;;;5074173;28;20099;-73
2021/07/31 07:52:50;;;;;;;5.90;3.28;;;;;;;;;;5074333;28;20028;-71
2021/07/31 07:55:16;;;;;;;7.53;3.22;;;;;;;;;;5074250;28;20075;-72
2021/07/31 07:57:42;;;;;;;6.43;3.10;;;;;;;;;;5056230;28;20142;-72
2021/07/31 08:00:08;;;;;;;6.10;3.50;;;;;;;;;;5074107;28;20020;-71
2021/07/31 08:02:34;;;;;;;6.28;2.83;;;;;;;;;;5056161;28;20499;-71
2021/07/31 08:05:00;;;;;;;5.38;2.95;;;;;;;;;;5074113;28;20270;-73
2021/07/31 08:07:27;;;;;;;8.35;3.40;;;;;;;;;;5073493;28;20104;-73
2021/07/31 08:09:54;;;;;;;5.20;2.92;;;;;;;;;;5073875;28;20032;-72
2021/07/31 08:12:20;;;;;;;8.02;3.30;;;;;;;;;;5073701;28;20045;-72
2021/07/31 08:14:47;;;;;;;4.88;2.83;;;;;;;;;;5055902;28;20028;-71
2021/07/31 08:17:13;;;;;;;5.75;3.13;;;;;;;;;;5073691;28;20024;-70
2021/07/31 08:19:39;;;;;;;6.32;3.03;;;;;;;;;;5073735;28;20028;-71
2021/07/31 08:22:05;;;;;;;6.18;2.78;;;;;;;;;;5063907;28;20036;-71
2021/07/31 08:24:31;;;;;;;5.07;2.78;;;;;;;;;;5073520;28;20032;-71
2021/07/31 08:26:57;;;;;;;5.15;2.67;;;;;;;;;;5073800;28;20029;-72
2021/07/31 08:29:23;;;;;;;5.85;3.70;;;;;;;;;;5055466;28;20024;-71
2021/07/31 08:31:49;;;;;;;5.28;2.75;;;;;;;;;;5073643;28;20523;-72
2021/07/31 08:34:17;;;;;;;9.88;3.50;;;;;;;;;;5066356;28;20032;-71
2021/07/31 08:36:43;;;;;;;5.05;2.90;;;;;;;;;;5073461;28;20029;-71
2021/07/31 08:39:09;;;;;;;6.85;3.20;;;;;;;;;;5073506;28;20361;-71
2021/07/31 08:41:35;;;;;;;5.80;3.15;;;;;;;;;;5055332;28;20028;-72
2021/07/31 08:44:02;;;;;;;5.53;3.00;;;;;;;;;;5073105;28;20021;-71
2021/07/31 08:46:29;;;;;;;5.32;3.13;;;;;;;;;;5055260;28;20013;-71
2021/07/31 08:48:56;;;;;;;6.13;3.00;;;;;;;;;;5055181;28;20028;-74
2021/07/31 08:51:22;;;;;;;5.93;3.35;;;;;;;;;;5055168;28;20502;-71
2021/07/31 08:53:49;;;;;;;5.97;2.80;;;;;;;;;;5072883;28;20042;-73
2021/07/31 08:56:15;;;;;;;5.10;2.90;;;;;;;;;;5055269;28;20200;-72
2021/07/31 08:58:41;;;;;;;4.90;3.15;;;;;;;;;;5073034;28;20016;-72
2021/07/31 09:01:07;;;;;;;5.72;2.83;;;;;;;;;;5073062;28;20119;-71
2021/07/31 09:03:47;;;;;;;5.32;3.10;;;;;;;;;;5054977;28;20150;-71
2021/07/31 09:06:26;;;;;;;7.40;3.20;;;;;;;;;;5072840;28;20426;-71
2021/07/31 09:08:53;;;;;;;7.00;3.20;;;;;;;;;;5054812;28;20386;-71
2021/07/31 09:11:19;;;;;;;5.60;3.05;;;;;;;;;;5072697;28;20502;-72
2021/07/31 09:13:45;;;;;;;4.80;2.78;;;;;;;;;;5054623;28;20053;-72
2021/07/31 09:16:11;;;;;;;5.85;3.10;;;;;;;;;;5054881;28;20036;-71
2021/07/31 09:18:43;;;;;;;6.90;3.28;;;;;;;;;;5053853;28;20047;-72
2021/07/31 09:21:10;;;;;;;5.38;3.10;;;;;;;;;;5072587;28;20017;-71
2021/07/31 09:23:36;;;;;;;4.65;3.20;;;;;;;;;;5072554;28;20016;-71
2021/07/31 09:26:02;;;;;;;5.38;3.20;;;;;;;;;;5072771;28;20028;-71
2021/07/31 09:28:30;;;;;;;4.38;2.58;;;;;;;;;;5054653;28;20509;-71
2021/07/31 09:30:56;;;;;;;6.00;3.08;;;;;;;;;;5072491;28;20051;-73
2021/07/31 09:33:22;;;;;;;6.05;2.70;;;;;;;;;;5072638;28;20078;-71
2021/07/31 09:35:48;;;;;;;5.28;3.22;;;;;;;;;;5072626;28;20090;-71
2021/07/31 09:38:15;;;;;;;4.70;2.63;;;;;;;;;;5054527;28;20139;-71
2021/07/31 09:40:41;;;;;;;5.97;3.00;;;;;;;;;;5072562;28;20027;-71
2021/07/31 09:43:18;;;;;;;5.65;3.47;;;;;;;;;;5054337;28;20502;-71
2021/07/31 09:45:44;;;;;;;5.55;3.10;;;;;;;;;;5072206;28;20074;-71
2021/07/31 09:48:11;;;;;;;7.00;3.17;;;;;;;;;;5072475;28;20078;-71
2021/07/31 09:50:40;;;;;;;14.25;3.22;;;;;;;;;;5040681;28;20025;-71
2021/07/31 09:53:07;;;;;;;6.40;3.20;;;;;;;;;;5051155;28;20024;-71
2021/07/31 09:55:34;;;;;;;5.70;2.83;;;;;;;;;;5032522;28;20037;-71
2021/07/31 09:58:00;;;;;;;8.25;2.95;;;;;;;;;;5050774;28;20029;-71
2021/07/31 10:00:26;;;;;;;7.65;3.38;;;;;;;;;;5048479;28;20025;-72
2021/07/31 10:02:52;;;;;;;7.72;2.97;;;;;;;;;;5051286;28;20083;-72
2021/07/31 10:05:18;;;;;;;8.80;2.88;;;;;;;;;;5051177;28;20051;-72
2021/07/31 10:07:44;;;;;;;5.70;2.70;;;;;;;;;;5033501;28;20021;-72
2021/07/31 10:10:11;;;;;;;12.48;3.67;;;;;;;;;;5052028;28;20553;-73
2021/07/31 10:12:37;;;;;;;13.35;3.55;;;;;;;;;;5051843;28;20068;-71
2021/07/31 10:15:04;;;;;;;13.30;3.40;;;;;;;;;;5033469;28;20033;-72
2021/07/31 10:17:33;;;;;;;8.45;3.30;;;;;;;;;;5050716;28;20091;-71
2021/07/31 10:20:00;;;;;;;5.88;2.90;;;;;;;;;;5051660;28;20029;-72
2021/07/31 10:22:46;;;;;;;10.48;3.13;;;;;;;;;;5051767;28;20013;-72
2021/07/31 10:25:13;;;;;;;9.10;3.22;;;;;;;;;;5051818;28;20095;-71
2021/07/31 10:27:40;;;;;;;8.15;3.47;;;;;;;;;;5051875;28;20368;-71
2021/07/31 10:30:23;;;;;;;6.50;2.70;;;;;;;;;;5054085;28;20025;-71
2021/07/31 10:32:49;;;;;;;5.75;2.95;;;;;;;;;;5054926;28;20638;-71
2021/07/31 10:35:23;;;;;;;6.90;3.55;;;;;;;;;;5057369;28;20469;-71
2021/07/31 10:37:49;;;;;;;5.38;3.30;;;;;;;;;;5075849;28;20499;-71
2021/07/31 10:40:36;;;;;;;6.60;2.80;;;;;;;;;;5057361;28;20125;-71
2021/07/31 10:43:03;;;;;;;6.47;3.00;;;;;;;;;;5057581;28;20118;-71
2021/07/31 10:45:31;;;;;;;4.53;2.97;;;;;;;;;;5075957;28;20024;-71
2021/07/31 10:47:57;;;;;;;8.45;3.15;;;;;;;;;;5075812;28;20016;-71
2021/07/31 10:50:24;;;;;;;4.80;2.90;;;;;;;;;;5075534;28;20026;-72
2021/07/31 10:52:53;;;;;;;6.22;3.30;;;;;;;;;;5075386;28;20020;-71
2021/07/31 10:55:23;;;;;;;5.28;3.00;;;;;;;;;;5057133;28;20037;-71
2021/07/31 10:57:55;;;;;;;6.68;2.83;;;;;;;;;;5075193;28;20434;-71
2021/07/31 11:00:25;;;;;;;4.85;2.78;;;;;;;;;;5075244;28;20027;-71
2021/07/31 11:02:51;;;;;;;7.20;3.00;;;;;;;;;;5057165;28;20050;-71
2021/07/31 11:05:17;;;;;;;4.70;3.03;;;;;;;;;;5057012;28;20023;-75
2021/07/31 11:07:58;;;;;;;5.18;3.03;;;;;;;;;;5075137;28;20024;-71
2021/07/31 11:10:30;;;;;;;5.03;2.70;;;;;;;;;;5057200;28;20103;-72
2021/07/31 11:12:56;;;;;;;;;;;;;;;;;;5075438;28;20594;-72
2021/07/31 11:15:23;;;;;;;5.40;2.83;;;;;;;;;;5075029;28;20003;-71
2021/07/31 11:17:56;;;;;;;4.53;2.35;;;;;;;;;;5071340;28;20417;-72
2021/07/31 11:20:26;;;;;;;4.35;2.40;;;;;;;;;;5067072;28;20429;-71
2021/07/31 11:22:56;;;;;;;5.50;2.75;;;;;;;;;;5056941;28;20024;-71
2021/07/31 11:25:22;;;;;;;4.45;2.63;;;;;;;;;;5074855;28;20058;-72
2021/07/31 11:27:55;;;;;;;5.25;2.90;;;;;;;;;;5074980;28;20017;-71
2021/07/31 11:30:21;;;;;;;6.00;2.67;;;;;;;;;;5056851;28;20541;-71
2021/07/31 11:32:47;;;;;;;5.97;2.97;;;;;;;;;;5074093;28;20024;-71
2021/07/31 11:35:26;;;;;;;6.18;2.45;;;;;;;;;;5056177;28;20101;-71
2021/07/31 11:37:52;;;;;;;6.65;2.45;;;;;;;;;;5052930;28;20074;-71
2021/07/31 11:40:18;;;;;;;8.00;3.22;;;;;;;;;;5073318;28;20463;-71
2021/07/31 11:42:44;;;;;;;5.45;3.03;;;;;;;;;;5054208;28;20054;-72
2021/07/31 11:45:10;;;;;;;6.97;3.15;;;;;;;;;;5052806;28;20028;-75
2021/07/31 11:47:39;;;;;;;5.35;2.30;;;;;;;;;;5052102;28;20422;-72
2021/07/31 11:50:06;;;;;;;5.47;2.13;;;;;;;;;;5054212;28;20042;-71
2021/07/31 11:52:32;;;;;;;4.85;2.45;;;;;;;;;;5054546;28;20151;-71
2021/07/31 11:54:58;;;;;;;8.00;2.25;;;;;;;;;;5054302;28;20065;-71
2021/07/31 11:57:24;;;;;;;8.38;2.92;;;;;;;;;;5069602;28;20021;-71
2021/07/31 11:59:50;;;;;;;9.50;3.00;;;;;;;;;;5054207;28;20032;-71
2021/07/31 12:02:32;;;;;;;7.60;3.78;;;;;;;;;;5054163;28;20383;-72
2021/07/31 12:04:58;;;;;;;;;;;;;;;;;;5070051;28;20025;-70
2021/07/31 12:07:25;;;;;;;6.45;2.78;;;;;;;;;;5054197;28;20366;-70
2021/07/31 12:10:00;;;;;;;8.00;3.40;;;;;;;;;;5054060;28;20036;-70
2021/07/31 12:12:27;;;;;;;6.53;3.20;;;;;;;;;;5069446;28;20047;-71
2021/07/31 12:15:18;;;;;;;4.43;3.08;;;;;;;;;;5054098;28;20029;-71
2021/07/31 12:17:56;;;;;;;6.40;3.15;;;;;;;;;;5047849;28;20041;-72
2021/07/31 12:20:29;;;;;;;6.47;3.17;;;;;;;;;;5054049;28;20025;-71
2021/07/31 12:22:55;;;;;;;7.63;3.25;;;;;;;;;;5054101;28;20028;-71
2021/07/31 12:25:21;;;;;;;4.97;2.75;;;;;;;;;;5054009;28;20494;-71
2021/07/31 12:27:50;;;;;;;5.75;3.20;;;;;;;;;;5053995;28;20048;-71
2021/07/31 12:30:40;;;;;;;5.53;3.20;;;;;;;;;;5053930;28;20028;-71
2021/07/31 12:33:06;;;;;;;6.60;2.97;;;;;;;;;;5050975;28;20033;-70
2021/07/31 12:35:35;;;;;;;5.30;3.25;;;;;;;;;;5053839;28;20052;-71
2021/07/31 12:38:01;;;;;;;6.15;3.10;;;;;;;;;;5053659;28;20025;-70
2021/07/31 12:40:28;;;;;;;7.18;3.28;;;;;;;;;;5053675;28;20035;-70
2021/07/31 12:42:54;;;;;;;5.13;3.40;;;;;;;;;;5053592;28;20104;-71
2021/07/31 12:45:20;;;;;;;4.63;2.88;;;;;;;;;;5053614;28;20070;-70
2021/07/31 12:47:46;;;;;;;5.75;3.00;;;;;;;;;;5053669;28;20106;-71
2021/07/31 12:50:13;;;;;;;7.03;3.58;;;;;;;;;;5053311;28;20017;-70
2021/07/31 12:52:39;;;;;;;5.75;2.88;;;;;;;;;;5053167;28;20028;-71
2021/07/31 12:55:05;;;;;;;5.63;3.53;;;;;;;;;;5053274;28;20056;-70
2021/07/31 12:57:31;;;;;;;7.68;3.40;;;;;;;;;;5053270;28;20029;-71
2021/07/31 12:59:57;;;;;;;5.30;3.00;;;;;;;;;;5053127;28;20032;-72
2021/07/31 13:02:24;;;;;;;5.05;2.90;;;;;;;;;;5052998;28;20049;-71
2021/07/31 13:04:50;;;;;;;6.00;2.85;;;;;;;;;;5053261;28;20021;-71
2021/07/31 13:07:16;;;;;;;5.45;3.08;;;;;;;;;;5068363;28;20063;-71
2021/07/31 13:09:42;;;;;;;6.00;3.03;;;;;;;;;;5068222;28;20028;-71
2021/07/31 13:12:09;;;;;;;5.90;3.25;;;;;;;;;;5052871;28;20071;-71
2021/07/31 13:14:54;;;;;;;6.22;3.47;;;;;;;;;;5052882;28;20048;-71
2021/07/31 13:17:20;;;;;;;4.57;2.80;;;;;;;;;;5052774;28;20037;-71
2021/07/31 13:19:46;;;;;;;5.72;3.13;;;;;;;;;;5052711;28;20075;-71
2021/07/31 13:22:13;;;;;;;5.38;2.90;;;;;;;;;;5052917;28;20021;-71
2021/07/31 13:24:39;;;;;;;4.50;2.88;;;;;;;;;;5052950;28;20016;-70
2021/07/31 13:27:05;;;;;;;9.93;3.10;;;;;;;;;;5052134;28;20025;-71
2021/07/31 13:29:31;;;;;;;4.97;3.00;;;;;;;;;;5052846;28;20032;-71
2021/07/31 13:31:59;;;;;;;5.45;2.85;;;;;;;;;;5052769;28;20134;-73
2021/07/31 13:34:25;;;;;;;8.05;2.90;;;;;;;;;;5039412;28;20032;-73
2021/07/31 13:36:56;;;;;;;6.20;2.90;;;;;;;;;;5051268;28;20041;-74
2021/07/31 13:39:25;;;;;;;4.68;2.75;;;;;;;;;;5044833;28;20490;-73
2021/07/31 13:41:51;;;;;;;4.78;2.90;;;;;;;;;;5030986;28;20051;-70
2021/07/31 13:44:17;;;;;;;4.75;3.22;;;;;;;;;;5032193;28;20029;-71
2021/07/31 13:46:44;;;;;;;6.05;2.97;;;;;;;;;;5032142;28;20053;-71
2021/07/31 13:49:10;;;;;;;5.40;2.50;;;;;;;;;;5032292;28;20388;-71
2021/07/31 13:51:36;;;;;;;5.38;2.83;;;;;;;;;;5039697;28;20078;-72
2021/07/31 13:54:02;;;;;;;7.32;3.00;;;;;;;;;;5052166;28;20028;-72
2021/07/31 13:56:28;;;;;;;5.32;2.85;;;;;;;;;;5050955;28;20033;-72
2021/07/31 13:58:55;;;;;;;6.57;3.00;;;;;;;;;;5052142;28;20021;-73
2021/07/31 14:01:22;;;;;;;4.18;2.60;;;;;;;;;;5051883;28;20103;-72
2021/07/31 14:03:48;;;;;;;4.18;2.50;;;;;;;;;;5051769;28;20029;-72
2021/07/31 14:06:14;;;;;;;6.00;2.80;;;;;;;;;;5052154;28;20021;-72
2021/07/31 14:08:40;;;;;;;4.75;2.97;;;;;;;;;;5051921;28;20029;-72
2021/07/31 14:11:06;;;;;;;4.72;2.60;;;;;;;;;;5051762;28;20094;-72
2021/07/31 14:13:33;;;;;;;5.57;2.72;;;;;;;;;;5052003;28;20492;-71
2021/07/31 14:15:59;;;;;;;3.92;2.40;;;;;;;;;;5050530;28;20036;-71
2021/07/31 14:18:25;;;;;;;3.85;2.40;;;;;;;;;;5051722;28;20047;-72
2021/07/31 14:20:51;;;;;;;6.65;3.00;;;;;;;;;;5051629;28;20057;-73
2021/07/31 14:23:17;;;;;;;8.55;3.00;;;;;;;;;;5051937;28;20019;-72
2021/07/31 14:25:43;;;;;;;4.07;2.47;;;;;;;;;;5051936;28;20033;-72
2021/07/31 14:28:10;;;;;;;4.32;2.78;;;;;;;;;;5042820;28;20507;-72
2021/07/31 14:30:36;;;;;;;5.63;2.70;;;;;;;;;;5031632;28;20029;-73
2021/07/31 14:33:02;;;;;;;5.22;2.80;;;;;;;;;;5031991;28;20056;-76
2021/07/31 14:35:29;;;;;;;6.30;2.75;;;;;;;;;;5032083;28;20029;-72
2021/07/31 14:37:58;;;;;;;3.83;2.40;;;;;;;;;;5030456;28;20077;-73